الصفحة الرئيسية
METAR-TAF:

METAR-TAF

مطار :

Kununurra, أستراليا

دائرة عرض: 15-46S, خط طول: 128-42E, ارتفاع: 44 متر

مراقبة الطقس الحالي

تاريخ ووقت الإصدار 30 دقيقة قبل الساعة 20:00UTC
ريح 7 عقدة من الجنوب/الجنوب الشرقي
درجة الحرارة 24°درجة مئوية
الرطوبة 47%
ضغط 1013 hPa
الرؤية 10 كم أو أكثر

METAR: YPKU 172000Z AUTO 16007KT 9999 // NCD 24/12 Q1013

زمن: 04:30 (20:30 UTC)

توقعات

تاريخ ووقت الإصدار 2ساعات و 25 دقيقة قبل الساعة 18:05UTC
التوقعات صالحة من17 الساعة 20 UTC إلى 18 الساعة 08 UTC
ريح 8 عقدة من الجنوب/الجنوب الشرقي
الرؤية 10 كم أو أكثر
الغيوم لا تقل 1500 م ولا وجود لمزنة ركامية السحاب الأسود
من 17 الساعة 2300 UTC
ريح 15 عقدة من الجنوب الشرقي
الرؤية 10 كم أو أكثر
الغيوم لا تقل 1500 م ولا وجود لمزنة ركامية السحاب الأسود
من 18 الساعة 0400 UTC
ريح 10 عقدة من الجنوب/الجنوب الشرقي
الرؤية 10 كم أو أكثر
الغيوم لا تقل 1500 م ولا وجود لمزنة ركامية السحاب الأسود

TAF: YPKU 171805Z 1720/1808 16008KT CAVOK FM172300 13015KT CAVOK FM180400 15010KT CAVOK

أرصاد الطقس والتوقعات من أكثر من 4000 مطار (تقارير الطقس للمطار METAR والتنبؤ بالطقس بالمطارTAF).

المحطات المتاحة هي النقط الصفراء والحمراء على الخريطة.

حرك المؤشر فوق النقطة لمعرفة اسم المحطة.

ثم انقر لمعرفة أرصاد وتوقعات الطقس.

لتغيير الخارطة: اضغط على الأزرار الخضراء مع رمز الصليب الأسود للتكبير. على الزر الأخضر مع شرطة للتصغير، أو على الأسهم الخضراء للخرائط المجاورة.


METAR-TAF: